Nature

Haifa Airport (HFA/LLHA) also known as U Michaeli Airport is a small international airport located in Haifa, Israel. It is located to the east of the city.
It mainly serves civilian flights, with some military usage. Most passenger flights utilizing the airport are domestic operations to Eilat and Tel Aviv.

AT EILAT AIRPORT YOU CAN FIND A SINGLE RUNWAY (16/34).

Scenery:

Sim Download Size Author
P3D & FSX LLHA Haifa v1.1 16.9MB Freeware Niv Tesler + Bar Rodoy
P3D & FSX ICVFR Haifa 32.8MB Freeware Chris Bell

Charts:

File Name
General Aerodrome Chart
Ground Parkings Chart
Ground Parkings G
Ground Parkings N
CVFR Entrance, and exit CVFR
CVFR Training Zones Chart
CVFR Traffic Pattrens Chart

METAR & TAF:

Available data for LLHA from the past hour
HAIFA (ISR-AFB)
Metar
LLHA 140550Z 16011KT CAVOK 19/12 Q1010

05:50 UTC

Wind: 160° 11kt

Visibility:

Sky:

Temp: 19 deg C / 66.2 deg F

Dewpoint: 12 deg C / 53.6 deg F

Pressure: 1010 hPa

TAF
TAF LLHA 140515Z 1406/1506 12007KT CAVOK BECMG 1407/1409 26008KT 9999 SCT030 PROB40 1409/1414 6000 TSRA FEW025CB BKN030 BECMG 1414/1416 VRB03KT PROB40 1416/1506 26008KT 6000 TSRA FEW025CB BKN030 TX22/1412Z TN15/1504Z